Time;durP1;ratioP1;P1;durP2;ratioP2;P2;SDS_P1;SDS_P2;PMS_P1;PMS_P2;Temp;Humidity;BMP_temperature;BMP_pressure;BME280_temperature;BME280_humidity;BME280_pressure;Samples;Min_cycle;Max_cycle;Signal;HPM_P1;HPM_P2
2022/03/07 00:04:27;;;;;;;6.22;3.72;;;;;;;-4.03;75.21;100787.47;10373627;28;20125;-74
2022/03/07 00:09:27;;;;;;;10.85;5.10;;;;;;;-4.79;75.53;100639.28;10373036;28;20498;-74
2022/03/07 00:14:29;;;;;;;20.40;9.38;;;;;;;-3.58;75.12;100799.38;10373791;28;20433;-73
2022/03/07 00:19:29;;;;;;;19.08;8.40;;;;;;;-4.44;74.48;100658.56;10372184;28;20057;-73
2022/03/07 00:24:30;;;;;;;9.02;4.50;;;;;;;-4.03;74.61;100718.22;10372526;28;20092;-74
2022/03/07 00:29:32;;;;;;;7.32;3.67;;;;;;;-3.85;75.00;100746.91;10373300;28;20148;-74
2022/03/07 00:34:32;;;;;;;8.95;4.75;;;;;;;-5.12;74.89;100505.06;10373256;28;20092;-74
2022/03/07 00:39:33;;;;;;;6.28;3.75;;;;;;;-4.08;75.54;100663.09;10372404;28;20092;-74
2022/03/07 00:44:34;;;;;;;8.38;4.47;;;;;;;-3.13;75.36;100788.69;10372473;28;20064;-74
2022/03/07 00:49:35;;;;;;;9.10;4.68;;;;;;;-3.01;75.87;100793.31;10372502;28;20038;-74
2022/03/07 00:54:36;;;;;;;11.95;4.70;;;;;;;-2.91;75.52;100796.34;10372159;28;20413;-74
2022/03/07 00:59:36;;;;;;;8.82;4.88;;;;;;;-3.06;74.86;100768.47;10373086;28;20532;-74
2022/03/07 01:04:37;;;;;;;9.05;4.80;;;;;;;-3.85;75.43;100622.31;10371133;28;20124;-74
2022/03/07 01:09:38;;;;;;;23.75;5.25;;;;;;;-3.38;75.29;100705.84;10371447;28;20050;-74
2022/03/07 01:14:39;;;;;;;10.63;5.20;;;;;;;-3.26;75.54;100726.06;10372660;28;20512;-73
2022/03/07 01:19:40;;;;;;;14.95;5.88;;;;;;;-3.31;75.38;100715.03;10372620;28;20045;-74
2022/03/07 01:24:40;;;;;;;13.70;7.20;;;;;;;-3.10;75.83;100743.53;10372274;28;20048;-73
2022/03/07 01:29:41;;;;;;;10.75;5.55;;;;;;;-2.82;75.82;100780.31;10378776;28;20073;-74
2022/03/07 01:34:42;;;;;;;9.77;5.65;;;;;;;-3.14;75.60;100722.06;10379417;28;20033;-74
2022/03/07 01:39:44;;;;;;;10.80;6.25;;;;;;;-2.95;75.07;100749.78;10379112;28;20062;-74
2022/03/07 01:44:44;;;;;;;11.77;7.10;;;;;;;-3.91;75.86;100613.03;10366510;28;20038;-74
2022/03/07 01:49:45;;;;;;;18.33;7.55;;;;;;;-3.18;75.87;100754.28;10368608;28;20061;-74
2022/03/07 01:54:46;;;;;;;12.32;6.78;;;;;;;-3.07;75.75;100777.19;10364431;28;20216;-73
2022/03/07 01:59:47;;;;;;;14.07;6.85;;;;;;;-3.53;75.75;100709.09;10360549;28;20052;-73
2022/03/07 02:04:48;;;;;;;11.25;6.05;;;;;;;-3.41;75.92;100746.66;10377648;28;20102;-73
2022/03/07 02:09:50;;;;;;;10.48;5.90;;;;;;;-3.33;76.82;100754.97;10378025;28;20441;-74
2022/03/07 02:14:51;;;;;;;14.30;7.30;;;;;;;-3.32;76.04;100778.31;10377781;28;20041;-74
2022/03/07 02:19:52;;;;;;;8.40;5.28;;;;;;;-4.04;76.21;100658.59;10377076;28;20486;-74
2022/03/07 02:24:53;;;;;;;10.05;5.30;;;;;;;-4.39;76.17;100635.88;10377043;28;20038;-73
2022/03/07 02:29:53;;;;;;;8.88;5.45;;;;;;;-3.57;76.25;100780.28;10376472;28;20046;-73
2022/03/07 02:34:55;;;;;;;11.25;5.93;;;;;;;-4.41;77.12;100640.28;10376853;28;20041;-74
2022/03/07 02:39:56;;;;;;;9.45;5.18;;;;;;;-3.54;77.17;100767.16;10376184;28;20096;-74
2022/03/07 02:44:57;;;;;;;14.80;6.68;;;;;;;-3.81;77.28;100744.09;10377447;28;20077;-73
2022/03/07 02:49:58;;;;;;;13.60;7.15;;;;;;;-3.74;77.70;100744.66;10375878;28;20529;-73
2022/03/07 02:54:58;;;;;;;12.65;6.85;;;;;;;-3.82;77.54;100752.81;10376875;28;20493;-74
2022/03/07 02:59:59;;;;;;;31.92;7.38;;;;;;;-5.05;76.45;100563.50;10375501;28;20048;-73
2022/03/07 03:05:00;;;;;;;11.85;6.38;;;;;;;-4.33;76.85;100745.47;10375569;28;20046;-74
2022/03/07 03:10:01;;;;;;;12.82;6.47;;;;;;;-5.30;77.20;100615.44;10376157;28;20060;-73
2022/03/07 03:15:02;;;;;;;15.75;6.47;;;;;;;-4.61;77.78;100767.31;10374758;28;20033;-74
2022/03/07 03:20:03;;;;;;;12.38;6.80;;;;;;;-4.85;77.90;100728.50;10374641;28;20041;-73
2022/03/07 03:25:05;;;;;;;12.65;5.82;;;;;;;-5.46;78.31;100627.31;10374877;28;20034;-73
2022/03/07 03:30:09;;;;;;;13.02;5.28;;;;;;;-4.83;78.36;100737.06;10357214;28;20038;-73
2022/03/07 03:35:10;;;;;;;12.48;6.38;;;;;;;-4.83;78.26;100744.00;10374837;28;20160;-73
2022/03/07 03:40:12;;;;;;;15.13;5.70;;;;;;;-4.87;78.85;100739.84;10374600;28;20058;-73
2022/03/07 03:45:25;;;;;;;15.57;6.47;;;;;;;-4.77;80.47;100737.72;10374293;28;20046;-73
2022/03/07 03:50:25;;;;;;;17.35;6.85;;;;;;;-5.27;79.63;100591.16;10373030;28;20513;-73
2022/03/07 03:55:26;;;;;;;12.70;7.80;;;;;;;-4.85;79.26;100579.94;10374817;28;20099;-73
2022/03/07 04:00:28;;;;;;;16.90;6.78;;;;;;;-3.47;78.97;100709.69;10373728;28;20156;-73
2022/03/07 04:05:29;;;;;;;10.10;6.00;;;;;;;-4.15;78.21;100584.69;10373317;28;20037;-73
2022/03/07 04:10:30;;;;;;;9.60;5.55;;;;;;;-3.32;78.21;100710.75;10373467;28;20046;-74
2022/03/07 07:12:56;;;;;;;4.88;2.47;;;;;;;3.71;55.29;100400.16;10535446;27;20810;-76
2022/03/07 07:17:57;;;;;;;7.18;3.00;;;;;;;4.52;54.22;100489.09;10531701;28;20044;-75
2022/03/07 07:22:58;;;;;;;4.18;2.55;;;;;;;5.06;53.54;100531.22;10557986;28;20047;-76
2022/03/07 07:27:59;;;;;;;5.05;2.70;;;;;;;5.27;53.49;100534.69;10553273;28;20058;-76
2022/03/07 07:33:00;;;;;;;5.00;2.85;;;;;;;3.93;53.68;100283.66;10573163;28;20123;-75
2022/03/07 07:38:01;;;;;;;3.97;2.53;;;;;;;4.64;52.68;100373.28;10566940;28;20045;-75
2022/03/07 07:43:02;;;;;;;6.00;2.63;;;;;;;5.54;52.58;100477.97;10537487;28;20043;-75
2022/03/07 07:48:03;;;;;;;7.57;4.38;;;;;;;5.49;52.31;100476.56;10529841;28;20113;-77
2022/03/07 07:53:04;;;;;;;7.18;3.20;;;;;;;5.75;52.49;100501.66;10530460;28;20130;-77
2022/03/07 07:58:05;;;;;;;7.32;4.10;;;;;;;5.91;52.00;100497.53;10529865;28;20054;-77
2022/03/07 08:03:07;;;;;;;7.60;2.97;;;;;;;5.88;51.05;100439.78;10533565;28;20075;-76
2022/03/07 08:08:08;;;;;;;9.13;4.60;;;;;;;6.10;50.66;100462.50;10548505;28;20044;-79
2022/03/07 08:13:10;;;;;;;11.02;3.63;;;;;;;6.10;51.30;100443.19;10516614;28;20036;-75
2022/03/07 08:18:11;;;;;;;7.50;4.45;;;;;;;5.48;51.10;100301.00;10529298;28;20504;-78
2022/03/07 08:23:12;;;;;;;6.70;4.13;;;;;;;6.27;50.29;100408.22;10513867;28;20093;-75
2022/03/07 08:28:12;;;;;;;9.32;4.80;;;;;;;5.94;50.74;100302.16;10516410;28;20035;-76
2022/03/07 08:33:13;;;;;;;7.63;3.88;;;;;;;6.85;50.47;100428.47;10514202;28;20040;-76
2022/03/07 08:38:14;;;;;;;6.47;3.60;;;;;;;6.77;50.12;100397.47;10515464;28;20123;-75
2022/03/07 08:43:15;;;;;;;8.02;4.10;;;;;;;6.82;50.03;100384.69;10517378;28;20033;-75
2022/03/07 08:48:16;;;;;;;6.03;3.80;;;;;;;6.71;49.82;100353.19;10515279;28;20044;-76
2022/03/07 08:53:17;;;;;;;6.07;4.05;;;;;;;6.29;49.55;100258.53;10517896;28;20491;-75
2022/03/07 08:58:17;;;;;;;9.48;4.13;;;;;;;7.16;50.54;100400.03;10514527;28;20047;-76
2022/03/07 09:03:18;;;;;;;7.32;3.97;;;;;;;5.98;50.08;100230.69;10507865;28;20043;-75
2022/03/07 09:08:20;;;;;;;7.25;4.25;;;;;;;7.00;49.31;100381.28;10499022;28;20056;-76
2022/03/07 09:13:21;;;;;;;7.55;4.00;;;;;;;6.74;49.13;100246.47;10500010;28;20046;-74
2022/03/07 09:18:26;;;;;;;5.63;3.55;;;;;;;7.55;48.53;100352.28;10498926;28;20036;-74
2022/03/07 09:23:28;;;;;;;5.97;3.97;;;;;;;7.76;48.29;100350.19;10504942;28;20105;-74
2022/03/07 09:28:29;;;;;;;6.63;4.10;;;;;;;6.65;48.55;100189.25;10498206;28;20040;-75
2022/03/07 09:33:30;;;;;;;8.95;5.32;;;;;;;7.65;49.24;100326.59;10498626;28;20045;-76
2022/03/07 09:38:31;;;;;;;9.73;5.35;;;;;;;6.94;47.98;100191.72;10506337;28;20109;-76
2022/03/07 09:43:32;;;;;;;9.52;4.55;;;;;;;7.84;48.55;100282.47;10540463;28;20097;-76
2022/03/07 09:48:33;;;;;;;12.27;6.20;;;;;;;7.80;48.41;100217.66;10520998;28;20052;-75
2022/03/07 09:53:34;;;;;;;6.10;4.32;;;;;;;8.35;48.01;100291.50;10530519;28;20070;-75
2022/03/07 09:58:35;;;;;;;7.95;4.95;;;;;;;8.08;47.95;100280.06;10516846;28;20076;-76
2022/03/07 10:03:36;;;;;;;7.03;4.10;;;;;;;7.41;47.78;100143.97;10496604;28;20093;-77
2022/03/07 10:08:38;;;;;;;6.47;4.43;;;;;;;8.32;46.83;100275.94;10497091;28;20557;-78
2022/03/07 10:13:49;;;;;;;6.90;3.95;;;;;;;8.03;47.65;100208.25;10497464;28;20051;-77
2022/03/07 10:18:54;;;;;;;7.15;4.35;;;;;;;8.13;48.56;100271.66;10496931;28;20116;-77
2022/03/07 10:23:57;;;;;;;6.88;4.28;;;;;;;8.28;47.75;100262.16;10496826;28;20051;-76
2022/03/07 10:28:58;;;;;;;5.72;3.58;;;;;;;8.61;47.07;100278.28;10497153;28;20045;-77
2022/03/07 10:34:00;;;;;;;12.95;4.10;;;;;;;8.60;46.85;100234.25;10495626;28;20044;-76
2022/03/07 10:39:04;;;;;;;6.38;3.78;;;;;;;8.49;46.55;100205.41;10496269;28;20050;-76
2022/03/07 10:44:06;;;;;;;;;;;;;;;8.67;46.60;100235.28;10494897;28;20041;-77
2022/03/07 10:49:07;;;;;;;5.70;3.42;;;;;;;7.98;47.21;100173.47;10496610;28;19916;-75
2022/03/07 10:54:11;;;;;;;6.50;3.40;;;;;;;8.34;46.46;100199.84;10494876;28;20499;-77
2022/03/07 10:59:12;;;;;;;4.38;3.03;;;;;;;8.05;46.93;100192.22;10495185;28;20051;-76
2022/03/07 11:04:20;;;;;;;4.68;2.85;;;;;;;8.22;46.93;100223.09;10501335;28;20131;-77
2022/03/07 11:09:21;;;;;;;10.68;3.97;;;;;;;8.42;47.01;100219.28;10505572;28;20068;-77
2022/03/07 11:14:24;;;;;;;5.28;3.35;;;;;;;8.52;46.33;100183.91;10495361;28;20041;-77
2022/03/07 11:19:26;;;;;;;7.13;3.55;;;;;;;8.49;46.49;100187.69;10495603;28;20051;-79
2022/03/07 11:24:28;;;;;;;6.50;3.53;;;;;;;8.13;46.34;100185.16;10510372;28;20124;-76
2022/03/07 11:29:34;;;;;;;5.65;3.42;;;;;;;7.54;45.91;100091.56;10520568;28;20113;-78
2022/03/07 11:34:35;;;;;;;5.75;3.70;;;;;;;7.81;46.83;100087.94;10500672;28;20123;-76
2022/03/07 11:39:36;;;;;;;10.60;6.40;;;;;;;8.51;46.36;100177.78;10495518;28;20040;-76
2022/03/07 11:44:37;;;;;;;5.07;3.75;;;;;;;8.26;45.95;100171.53;10494786;28;20036;-77
2022/03/07 11:49:39;;;;;;;15.30;8.30;;;;;;;7.65;47.60;100173.25;10502521;28;20037;-77
2022/03/07 11:55:01;;;;;;;9.27;4.03;;;;;;;8.07;47.11;100151.38;10503218;28;20045;-77
2022/03/07 12:00:21;;;;;;;8.40;4.63;;;;;;;8.51;46.86;100167.19;10502200;28;20048;-77
2022/03/07 12:05:33;;;;;;;5.35;2.92;;;;;;;8.35;46.77;100172.41;10502220;28;20036;-77
2022/03/07 12:10:35;;;;;;;6.30;3.08;;;;;;;8.19;45.86;100139.53;10502018;28;20057;-75
2022/03/07 12:15:53;;;;;;;5.82;3.20;;;;;;;8.19;45.70;100144.00;10501843;28;20136;-76
2022/03/07 12:20:56;;;;;;;9.85;3.80;;;;;;;7.38;46.24;100020.91;10506765;28;20050;-78
2022/03/07 12:26:02;;;;;;;7.68;5.72;;;;;;;7.60;46.06;100039.88;10511424;28;20051;-77
2022/03/07 12:31:05;;;;;;;5.60;2.65;;;;;;;8.14;45.77;100156.91;10518628;28;20045;-76
2022/03/07 12:36:10;;;;;;;5.78;3.20;;;;;;;7.72;46.54;100124.06;10522228;28;20066;-77
2022/03/07 12:41:10;;;;;;;;;;;;;;;7.95;46.27;100150.00;10536883;28;20035;-77
2022/03/07 12:46:12;;;;;;;5.60;3.42;;;;;;;7.64;45.01;100147.81;10543060;28;19920;-76
2022/03/07 12:51:16;;;;;;;5.57;2.95;;;;;;;7.50;45.73;100156.28;10542667;28;20040;-77
2022/03/07 12:56:20;;;;;;;7.60;3.00;;;;;;;6.35;46.06;99972.22;10541470;28;20047;-76
2022/03/07 13:01:25;;;;;;;6.80;2.67;;;;;;;6.60;46.19;100029.50;10533471;28;20119;-77
2022/03/07 13:06:34;;;;;;;5.70;3.40;;;;;;;7.22;46.01;100151.09;10512437;28;20045;-76
2022/03/07 13:11:38;;;;;;;6.68;3.20;;;;;;;6.64;45.58;100067.00;10508185;28;20072;-77
2022/03/07 13:16:39;;;;;;;13.43;2.30;;;;;;;6.37;46.62;100021.22;10498904;28;20166;-76
2022/03/07 13:21:45;;;;;;;6.47;2.80;;;;;;;6.92;46.55;100154.09;10504669;28;20123;-77
2022/03/07 13:27:16;;;;;;;5.55;3.25;;;;;;;6.93;46.73;100150.47;10510094;28;20542;-78
2022/03/07 13:32:18;;;;;;;4.88;2.80;;;;;;;6.00;46.34;100004.63;10493224;28;20056;-76
2022/03/07 13:37:25;;;;;;;7.70;3.42;;;;;;;6.56;47.54;100127.63;10494457;28;20036;-79
2022/03/07 13:42:25;;;;;;;8.13;3.85;;;;;;;5.59;47.49;99985.63;10497256;28;20061;-74
2022/03/07 13:47:31;;;;;;;8.15;3.13;;;;;;;6.50;46.07;100152.78;10517655;28;20560;-75
2022/03/07 13:52:38;;;;;;;8.75;3.35;;;;;;;5.60;46.65;100040.00;10514583;28;20036;-75
2022/03/07 13:57:47;;;;;;;7.38;2.40;;;;;;;6.18;47.34;100166.38;10517456;28;20044;-76
2022/03/07 14:02:56;;;;;;;7.38;3.80;;;;;;;5.98;47.84;100164.78;10512980;28;20047;-76
2022/03/07 14:07:57;;;;;;;10.82;5.05;;;;;;;5.93;48.16;100168.69;10509916;28;20040;-75
2022/03/07 14:12:59;;;;;;;4.70;2.40;;;;;;;5.80;48.05;100160.19;10512737;28;20055;-75
2022/03/07 14:18:11;;;;;;;7.20;3.95;;;;;;;5.52;48.40;100134.72;10502475;28;20033;-74
2022/03/07 14:23:13;;;;;;;6.78;2.55;;;;;;;5.19;49.06;100111.31;10501639;28;20098;-75
2022/03/07 14:28:14;;;;;;;10.43;4.38;;;;;;;5.34;48.86;100161.78;10536798;28;20040;-76
2022/03/07 14:33:15;;;;;;;22.33;4.38;;;;;;;4.99;49.52;100130.72;10496111;28;20037;-76
2022/03/07 14:38:16;;;;;;;6.05;3.40;;;;;;;5.00;49.85;100159.53;10509603;28;20093;-76
2022/03/07 14:43:17;;;;;;;6.28;3.75;;;;;;;4.78;50.34;100143.97;10538556;28;20135;-76
2022/03/07 14:48:17;;;;;;;5.20;2.78;;;;;;;4.45;50.82;100121.47;10537306;28;20035;-75
2022/03/07 14:53:18;;;;;;;17.38;4.78;;;;;;;4.44;51.35;100149.56;10538406;28;20047;-77
2022/03/07 14:58:21;;;;;;;6.63;3.35;;;;;;;4.09;51.57;100131.56;10537779;28;20055;-76
2022/03/07 15:03:22;;;;;;;9.85;4.40;;;;;;;4.05;51.79;100140.69;10537655;28;20504;-76
2022/03/07 15:08:22;;;;;;;10.90;4.55;;;;;;;2.70;52.72;99953.31;10537045;28;20064;-76
2022/03/07 15:13:23;;;;;;;6.93;3.05;;;;;;;2.58;53.04;99966.63;10536927;28;20048;-76
2022/03/07 15:18:24;;;;;;;8.52;2.92;;;;;;;3.01;53.33;100065.38;10537170;28;20047;-74
2022/03/07 15:23:25;;;;;;;6.97;2.72;;;;;;;3.07;53.84;100118.19;10543563;28;20035;-75
2022/03/07 15:28:27;;;;;;;4.18;2.13;;;;;;;2.59;54.09;100055.63;10545119;28;20525;-74
2022/03/07 15:33:28;;;;;;;4.13;2.15;;;;;;;2.37;54.55;100059.16;10544853;28;20037;-74
2022/03/07 15:38:29;;;;;;;7.30;3.00;;;;;;;2.47;54.94;100111.69;10545192;28;20412;-76
2022/03/07 15:43:30;;;;;;;7.88;2.30;;;;;;;2.38;55.65;100121.09;10544522;28;20046;-75
2022/03/07 15:48:32;;;;;;;6.22;2.08;;;;;;;2.27;55.75;100121.97;10516757;28;20052;-76
2022/03/07 15:53:33;;;;;;;5.45;2.40;;;;;;;1.55;56.19;100022.75;10544803;28;20474;-73
2022/03/07 15:58:35;;;;;;;6.70;2.35;;;;;;;2.14;56.27;100123.03;10519199;28;20135;-74
2022/03/07 16:03:38;;;;;;;5.03;1.83;;;;;;;2.01;56.41;100110.06;10511265;28;20446;-73
2022/03/07 16:08:39;;;;;;;4.05;2.22;;;;;;;1.51;56.93;100044.91;10512608;28;20056;-74
2022/03/07 16:13:40;;;;;;;5.97;2.60;;;;;;;1.89;56.76;100113.63;10518155;28;20039;-73
2022/03/07 16:18:41;;;;;;;4.82;2.30;;;;;;;1.64;57.16;100078.81;10522634;28;20055;-74
2022/03/07 16:23:43;;;;;;;4.57;2.28;;;;;;;0.72;57.99;99961.97;10506418;28;20042;-76
2022/03/07 16:28:43;;;;;;;4.50;2.50;;;;;;;0.68;57.89;99979.66;10507243;28;20415;-75
2022/03/07 16:33:44;;;;;;;7.50;2.38;;;;;;;0.59;58.28;99977.72;10499979;28;20036;-75
2022/03/07 16:38:45;;;;;;;4.60;2.47;;;;;;;1.21;58.53;100096.94;10500421;28;20063;-75
2022/03/07 16:43:46;;;;;;;8.18;2.65;;;;;;;0.86;58.77;100066.38;10501480;28;20420;-76
2022/03/07 16:48:47;;;;;;;5.25;2.70;;;;;;;1.00;58.88;100113.28;10499821;28;20044;-75
2022/03/07 16:53:50;;;;;;;6.00;3.00;;;;;;;0.98;59.06;100107.31;10500198;28;20094;-75
2022/03/07 16:58:54;;;;;;;5.95;2.83;;;;;;;0.90;59.71;100101.81;10499549;28;20052;-75
2022/03/07 17:03:55;;;;;;;8.30;3.40;;;;;;;0.40;60.16;100023.50;10512173;28;20143;-75
2022/03/07 17:08:56;;;;;;;5.63;3.08;;;;;;;-0.93;60.26;99814.59;10500148;28;20143;-76
2022/03/07 17:13:57;;;;;;;6.22;3.10;;;;;;;-0.28;60.06;99907.38;10510272;28;20110;-76
2022/03/07 17:18:58;;;;;;;7.03;2.85;;;;;;;0.89;60.81;100084.44;10499397;28;20047;-75
2022/03/07 17:23:59;;;;;;;6.57;2.67;;;;;;;-0.86;60.16;99798.50;10519260;28;20054;-76
2022/03/07 17:29:00;;;;;;;8.30;2.70;;;;;;;0.03;61.07;99951.34;10511648;28;20051;-75
2022/03/07 17:34:01;;;;;;;5.28;2.40;;;;;;;-1.07;60.85;99791.25;10512383;28;20048;-75
2022/03/07 17:39:03;;;;;;;7.55;2.30;;;;;;;0.26;60.90;100010.59;10510213;28;20605;-75
2022/03/07 17:44:05;;;;;;;9.38;2.70;;;;;;;0.57;61.19;100065.88;10511766;28;20048;-76
2022/03/07 17:49:06;;;;;;;6.05;2.70;;;;;;;-2.25;61.28;99630.09;10504598;28;20483;-78
2022/03/07 17:54:08;;;;;;;9.38;2.92;;;;;;;0.47;61.16;100050.03;10529333;28;20036;-76
2022/03/07 17:59:08;;;;;;;9.55;3.30;;;;;;;0.35;61.55;100024.78;10521188;28;20450;-77
2022/03/07 18:04:10;;;;;;;6.15;3.10;;;;;;;0.14;61.55;100007.06;10501545;28;20094;-77
2022/03/07 18:09:13;;;;;;;5.88;3.25;;;;;;;0.41;61.32;100042.63;10492173;28;20920;-78
2022/03/07 18:14:14;;;;;;;5.88;2.80;;;;;;;0.36;61.67;100069.09;10508603;28;20553;-76
2022/03/07 18:19:15;;;;;;;4.18;2.40;;;;;;;-0.09;62.05;99984.38;10514307;28;20089;-75
2022/03/07 18:24:16;;;;;;;6.82;3.20;;;;;;;0.23;62.35;100032.53;10496806;28;20173;-75
2022/03/07 18:29:17;;;;;;;5.30;2.47;;;;;;;-0.20;62.46;99960.81;10507242;28;20054;-74
2022/03/07 18:34:17;;;;;;;5.15;2.65;;;;;;;-0.31;61.91;99943.28;10524778;28;20104;-76
2022/03/07 18:39:18;;;;;;;5.95;3.20;;;;;;;0.05;62.55;100026.00;10515110;28;20625;-74
2022/03/07 18:44:19;;;;;;;6.55;2.78;;;;;;;-0.03;62.78;100005.69;10499825;28;20039;-74
2022/03/07 18:49:21;;;;;;;5.68;2.80;;;;;;;-1.01;63.02;99848.16;10521999;28;20043;-74
2022/03/07 18:54:22;;;;;;;5.75;2.67;;;;;;;-0.20;62.78;99972.09;10512984;28;20036;-75
2022/03/07 18:59:24;;;;;;;4.50;2.42;;;;;;;-0.39;62.56;99945.59;10506828;28;20066;-75
2022/03/07 19:04:25;;;;;;;2.67;1.60;;;;;;;-0.32;63.83;99957.31;10495325;28;20032;-75
2022/03/07 19:09:26;;;;;;;5.68;2.42;;;;;;;-0.23;64.26;99998.41;10496213;28;20187;-74
2022/03/07 19:14:27;;;;;;;7.25;3.00;;;;;;;-0.51;64.63;99969.03;10502826;28;20122;-75
2022/03/07 19:19:28;;;;;;;7.65;3.35;;;;;;;-0.48;66.00;100000.13;10513645;28;20051;-75
2022/03/07 19:24:29;;;;;;;7.95;3.78;;;;;;;-1.61;67.25;99841.81;10494944;28;20598;-75
2022/03/07 19:29:30;;;;;;;9.75;4.65;;;;;;;-2.34;66.85;99727.78;10507010;28;20131;-75
2022/03/07 19:34:30;;;;;;;13.27;4.35;;;;;;;-0.89;67.36;99963.00;10537056;28;20036;-75
2022/03/07 19:39:31;;;;;;;12.63;4.88;;;;;;;-1.23;68.19;99902.69;10536209;28;20048;-75
2022/03/07 19:44:32;;;;;;;7.57;4.15;;;;;;;-1.65;68.94;99821.28;10536904;28;20044;-75
2022/03/07 19:49:33;;;;;;;10.18;5.15;;;;;;;-1.25;69.79;99883.75;10535318;28;20043;-75
2022/03/07 19:54:34;;;;;;;7.70;3.78;;;;;;;-0.74;70.44;99968.00;10536458;28;20043;-75
2022/03/07 19:59:35;;;;;;;7.85;3.63;;;;;;;-0.60;71.74;99972.28;10536580;28;20115;-76
2022/03/07 20:04:36;;;;;;;8.45;4.25;;;;;;;-0.77;70.67;99967.38;10536303;28;20036;-74
2022/03/07 20:09:37;;;;;;;10.25;3.90;;;;;;;-1.03;71.44;99935.25;10543087;28;20120;-74
2022/03/07 20:14:38;;;;;;;10.98;3.83;;;;;;;-1.74;72.25;99819.28;10543258;28;20522;-75
2022/03/07 20:19:39;;;;;;;10.07;3.22;;;;;;;-0.81;72.33;99974.56;10542522;28;20067;-74
2022/03/07 20:24:40;;;;;;;7.40;4.15;;;;;;;-2.12;73.10;99752.41;10544102;28;20039;-74
2022/03/07 20:29:41;;;;;;;4.93;2.97;;;;;;;-1.78;72.97;99812.63;10543788;28;20064;-74
2022/03/07 20:34:42;;;;;;;8.85;3.65;;;;;;;-1.32;73.39;99918.94;10541956;28;20469;-75
2022/03/07 20:39:43;;;;;;;7.38;3.63;;;;;;;-1.86;73.74;99832.19;10542712;28;20032;-75
2022/03/07 20:44:45;;;;;;;10.77;4.40;;;;;;;-1.34;73.71;99905.22;10543132;28;20491;-74
2022/03/07 20:49:45;;;;;;;10.90;4.50;;;;;;;-1.14;74.99;99943.78;10525685;28;20041;-74
2022/03/07 20:54:46;;;;;;;11.95;4.15;;;;;;;-1.10;75.81;99947.88;10520272;28;20055;-74
2022/03/07 20:59:47;;;;;;;7.45;3.20;;;;;;;-1.33;76.13;99920.72;10519915;28;20123;-74
2022/03/07 21:04:48;;;;;;;8.60;3.90;;;;;;;-1.18;75.41;99939.72;10540256;28;20064;-74
2022/03/07 21:09:49;;;;;;;6.22;3.10;;;;;;;-1.28;76.21;99929.09;10541324;28;20064;-74
2022/03/07 21:14:50;;;;;;;10.57;3.35;;;;;;;-1.73;76.87;99863.47;10541469;28;20043;-74
2022/03/07 21:19:51;;;;;;;8.63;4.40;;;;;;;-1.53;76.83;99913.41;10541255;28;20050;-74
2022/03/07 21:24:52;;;;;;;11.95;4.22;;;;;;;-1.44;76.99;99921.44;10540450;28;20119;-74
2022/03/07 21:29:53;;;;;;;10.82;4.28;;;;;;;-1.41;77.73;99931.69;10540567;28;20510;-74
2022/03/07 21:34:54;;;;;;;9.95;4.35;;;;;;;-2.19;78.06;99805.78;10541877;28;20495;-74
2022/03/07 21:39:55;;;;;;;7.28;4.28;;;;;;;-1.77;78.65;99872.41;10540432;28;20036;-74
2022/03/07 21:44:56;;;;;;;6.38;3.33;;;;;;;-2.39;79.03;99787.09;10540570;28;20036;-74
2022/03/07 21:49:56;;;;;;;10.07;5.03;;;;;;;-1.59;79.61;99917.25;10539558;28;20131;-74
2022/03/07 21:54:57;;;;;;;9.55;4.07;;;;;;;-2.32;79.01;99796.16;10541012;28;20491;-74
2022/03/07 21:59:58;;;;;;;6.13;3.28;;;;;;;-1.57;79.82;99902.34;10538574;28;20040;-74
2022/03/07 22:04:59;;;;;;;8.43;3.38;;;;;;;-1.69;79.83;99901.38;10540882;28;20482;-74
2022/03/07 22:10:00;;;;;;;7.07;3.47;;;;;;;-1.58;80.19;99911.13;10539228;28;20079;-74
2022/03/07 22:15:01;;;;;;;5.93;3.08;;;;;;;-1.85;80.07;99878.13;10537450;28;20176;-74
2022/03/07 22:20:04;;;;;;;7.45;3.35;;;;;;;-2.47;79.32;99750.34;10539111;28;20040;-74
2022/03/07 22:25:06;;;;;;;9.18;3.75;;;;;;;-1.47;79.78;99911.22;10538252;28;20035;-74
2022/03/07 22:30:07;;;;;;;6.32;3.42;;;;;;;-1.73;80.03;99860.03;10537996;28;20122;-74
2022/03/07 22:35:09;;;;;;;6.88;3.33;;;;;;;-1.44;79.89;99915.38;10538865;28;20028;-74
2022/03/07 22:40:10;;;;;;;5.95;3.20;;;;;;;-1.60;80.55;99879.13;10537095;28;20048;-74
2022/03/07 22:45:11;;;;;;;6.18;3.10;;;;;;;-1.40;80.09;99915.09;10538804;28;20036;-74
2022/03/07 22:50:12;;;;;;;4.40;2.58;;;;;;;-1.33;80.20;99915.53;10537867;28;20487;-75
2022/03/07 22:55:14;;;;;;;8.13;3.05;;;;;;;-1.30;80.66;99925.72;10537850;28;20032;-74
2022/03/07 23:00:21;;;;;;;5.90;3.10;;;;;;;-1.31;80.74;99905.00;10536883;28;20514;-74
2022/03/07 23:10:42;;;;;;;5.82;2.90;;;;;;;-1.62;79.53;99894.00;10537748;28;20113;-74
2022/03/07 23:15:43;;;;;;;6.57;3.22;;;;;;;-1.36;80.37;99920.09;10537988;28;20044;-74
2022/03/07 23:20:44;;;;;;;5.85;2.90;;;;;;;-1.85;80.08;99818.25;10537047;28;20036;-74
2022/03/07 23:25:45;;;;;;;7.43;2.53;;;;;;;-1.69;80.09;99838.06;10537498;28;20526;-74
2022/03/07 23:30:46;;;;;;;5.65;2.83;;;;;;;-1.16;80.51;99911.78;10537073;28;20040;-74
2022/03/07 23:35:50;;;;;;;5.90;3.35;;;;;;;-1.07;80.71;99905.94;10537113;28;20059;-74
2022/03/07 23:40:51;;;;;;;5.65;2.88;;;;;;;-1.52;80.09;99844.75;10536614;28;20147;-74
2022/03/07 23:45:52;;;;;;;5.85;3.15;;;;;;;-1.39;80.33;99887.28;10544726;28;20042;-76
2022/03/07 23:50:53;;;;;;;7.32;3.10;;;;;;;-1.50;80.49;99879.34;10545262;28;20051;-74
2022/03/07 23:55:54;;;;;;;4.75;2.90;;;;;;;-3.04;80.29;99651.78;10543470;28;20093;-74
